Skin ADV
Stampa

METAR LIMF - Aeroporto di Torino Caselle

Torino / Caselle, Italy (LIMF) 45-13N 007-39E 287M

Jun 24, 2019 - 08:20 AM EDT / 2019.06.24 1220 UTC

Wind: Variable at 3 MPH (3 KT):0

Visibility: greater than 7 mile(s):0

Temperature: 86 F (30 C)

Dew Point: 62 F (17 C)

Relative Humidity: 45%

Pressure (altimeter): 30.09 in. Hg (1019 hPa)

ob: LIMF 241220Z VRB03KT CAVOK 30/17 Q1019

cycle: 12

 Dati METAR in tempo reale | Fonte: NOAA

1 1 1 1 1 1 1 1 1 1 Rating 0.00 (0 Votes)

hits
114
Ritieni il contenuto di questa pagina incompleto, non attendibile oppure oggetto di altre problematiche? INVIA UNA SEGNALAZIONE Grazie!